Terminal Aerodrome Forecast
Issued by NWS Houston/Galveston, TX

Home | Current Version | Previous Version | Text Only | Print | Product List | Glossary On
Versions: 1 2 3 4 5 6 7 8 9 10 11 12 13 14 15 16 17 18 19 20 21 22 23 24 25 26 27 28 29 30 31 32 33 34 35 36 37 38 39 40 41 42 43 44 45
000
FTUS44 KHGX 161137
TAFGLS
TAF
KGLS 161137Z 1612/1712 10007KT P6SM VCSH SCT020 BKN250
      TEMPO 1612/1614 VRB05G15KT 5SM SHRA BKN028 OVC080
     FM161400 12010KT P6SM VCTS BKN030CB BKN250
      TEMPO 1614/1616 VRB05G15KT SHRA BKN030 OVC090
     FM161900 13010KT P6SM BKN035 BKN250
     FM170000 13007KT P6SM SCT030 BKN250
     FM170900 16004KT P6SM VCSH SCT025 BKN250=

USA.gov is the U.S. government's official web portal to all federal, state and local government web resources and services.